sensor_id;sensor_type;location;lat;lon;timestamp;pressure;altitude;pressure_sealevel;temperature;humidity
28008;BME280;15333;50.010;20.020;2023-04-26T00:02:23;98141.00;;;7.31;88.78
28008;BME280;15333;50.010;20.020;2023-04-26T00:05:26;98149.59;;;7.34;88.62
28008;BME280;15333;50.010;20.020;2023-04-26T00:08:29;98148.13;;;7.30;87.86
28008;BME280;15333;50.010;20.020;2023-04-26T00:11:30;98141.53;;;7.23;89.04
28008;BME280;15333;50.010;20.020;2023-04-26T00:14:31;98150.03;;;7.28;88.16
28008;BME280;15333;50.010;20.020;2023-04-26T00:17:32;98156.16;;;7.41;87.66
28008;BME280;15333;50.010;20.020;2023-04-26T00:20:33;98161.50;;;7.41;87.86
28008;BME280;15333;50.010;20.020;2023-04-26T00:23:34;98160.25;;;7.34;87.27
28008;BME280;15333;50.010;20.020;2023-04-26T00:26:36;98156.81;;;7.32;87.02
28008;BME280;15333;50.010;20.020;2023-04-26T00:29:37;98156.22;;;7.29;86.73
28008;BME280;15333;50.010;20.020;2023-04-26T00:32:38;98162.38;;;7.29;86.38
28008;BME280;15333;50.010;20.020;2023-04-26T00:35:40;98155.16;;;7.31;85.90
28008;BME280;15333;50.010;20.020;2023-04-26T00:38:41;98157.81;;;7.31;84.71
28008;BME280;15333;50.010;20.020;2023-04-26T00:41:43;98167.06;;;7.26;84.16
28008;BME280;15333;50.010;20.020;2023-04-26T00:44:43;98164.94;;;7.31;82.32
28008;BME280;15333;50.010;20.020;2023-04-26T00:47:45;98169.88;;;7.24;83.32
28008;BME280;15333;50.010;20.020;2023-04-26T00:50:46;98158.56;;;7.21;81.64
28008;BME280;15333;50.010;20.020;2023-04-26T00:53:48;98164.75;;;7.21;81.38
28008;BME280;15333;50.010;20.020;2023-04-26T00:56:48;98145.38;;;7.19;79.91
28008;BME280;15333;50.010;20.020;2023-04-26T00:59:52;98163.16;;;7.19;78.73
28008;BME280;15333;50.010;20.020;2023-04-26T01:02:53;98149.53;;;7.11;78.68
28008;BME280;15333;50.010;20.020;2023-04-26T01:05:54;98155.84;;;7.10;78.64
28008;BME280;15333;50.010;20.020;2023-04-26T01:08:56;98164.03;;;7.06;77.76
28008;BME280;15333;50.010;20.020;2023-04-26T01:11:59;98167.34;;;7.10;77.33
28008;BME280;15333;50.010;20.020;2023-04-26T01:15:01;98176.50;;;7.06;76.52
28008;BME280;15333;50.010;20.020;2023-04-26T01:18:02;98181.28;;;7.01;76.49
28008;BME280;15333;50.010;20.020;2023-04-26T01:21:04;98187.56;;;7.00;75.90
28008;BME280;15333;50.010;20.020;2023-04-26T01:24:05;98191.19;;;6.99;75.09
28008;BME280;15333;50.010;20.020;2023-04-26T01:27:06;98197.38;;;6.87;75.10
28008;BME280;15333;50.010;20.020;2023-04-26T01:30:08;98189.59;;;6.84;75.12
28008;BME280;15333;50.010;20.020;2023-04-26T01:33:09;98192.69;;;6.78;75.13
28008;BME280;15333;50.010;20.020;2023-04-26T01:36:10;98200.56;;;6.66;75.15
28008;BME280;15333;50.010;20.020;2023-04-26T01:39:11;98202.47;;;6.64;74.64
28008;BME280;15333;50.010;20.020;2023-04-26T01:42:12;98205.75;;;6.55;74.94
28008;BME280;15333;50.010;20.020;2023-04-26T01:45:13;98208.44;;;6.55;74.74
28008;BME280;15333;50.010;20.020;2023-04-26T01:48:32;98203.53;;;6.49;74.66
28008;BME280;15333;50.010;20.020;2023-04-26T01:51:34;98227.25;;;6.52;73.95
28008;BME280;15333;50.010;20.020;2023-04-26T01:54:36;98213.31;;;6.36;74.01
28008;BME280;15333;50.010;20.020;2023-04-26T01:57:36;98229.44;;;6.33;73.32
28008;BME280;15333;50.010;20.020;2023-04-26T02:00:37;98221.22;;;6.11;74.26
28008;BME280;15333;50.010;20.020;2023-04-26T02:03:38;98224.06;;;6.08;73.70
28008;BME280;15333;50.010;20.020;2023-04-26T02:06:39;98225.84;;;5.95;74.13
28008;BME280;15333;50.010;20.020;2023-04-26T02:09:41;98227.34;;;5.84;74.61
28008;BME280;15333;50.010;20.020;2023-04-26T02:12:42;98229.44;;;5.67;75.67
28008;BME280;15333;50.010;20.020;2023-04-26T02:15:47;98219.84;;;5.64;76.07
28008;BME280;15333;50.010;20.020;2023-04-26T02:18:48;98222.59;;;5.63;76.52
28008;BME280;15333;50.010;20.020;2023-04-26T02:21:58;98227.03;;;5.62;76.58
28008;BME280;15333;50.010;20.020;2023-04-26T02:24:59;98233.13;;;5.64;76.49
28008;BME280;15333;50.010;20.020;2023-04-26T02:28:01;98230.28;;;5.67;76.85
28008;BME280;15333;50.010;20.020;2023-04-26T02:31:03;98235.00;;;5.62;76.19
28008;BME280;15333;50.010;20.020;2023-04-26T02:34:04;98235.13;;;5.61;76.44
28008;BME280;15333;50.010;20.020;2023-04-26T02:37:06;98229.16;;;5.57;76.72
28008;BME280;15333;50.010;20.020;2023-04-26T02:40:07;98238.06;;;5.56;77.04
28008;BME280;15333;50.010;20.020;2023-04-26T02:43:10;98238.69;;;5.47;77.79
28008;BME280;15333;50.010;20.020;2023-04-26T02:46:12;98240.75;;;5.42;78.62
28008;BME280;15333;50.010;20.020;2023-04-26T02:49:14;98238.13;;;5.28;79.44
28008;BME280;15333;50.010;20.020;2023-04-26T02:52:16;98234.81;;;5.24;80.39
28008;BME280;15333;50.010;20.020;2023-04-26T02:55:17;98238.41;;;5.23;81.47
28008;BME280;15333;50.010;20.020;2023-04-26T02:58:17;98242.50;;;5.15;81.86
28008;BME280;15333;50.010;20.020;2023-04-26T03:01:18;98243.03;;;5.20;81.05
28008;BME280;15333;50.010;20.020;2023-04-26T03:04:20;98246.84;;;5.16;80.70
28008;BME280;15333;50.010;20.020;2023-04-26T03:07:21;98257.25;;;5.04;81.57
28008;BME280;15333;50.010;20.020;2023-04-26T03:10:22;98249.13;;;4.93;83.07
28008;BME280;15333;50.010;20.020;2023-04-26T03:13:23;98247.03;;;4.84;84.15
28008;BME280;15333;50.010;20.020;2023-04-26T03:16:27;98254.97;;;4.84;85.04
28008;BME280;15333;50.010;20.020;2023-04-26T03:19:28;98255.56;;;4.75;85.60
28008;BME280;15333;50.010;20.020;2023-04-26T03:22:29;98258.78;;;4.80;85.89
28008;BME280;15333;50.010;20.020;2023-04-26T03:25:32;98263.84;;;4.69;87.35
28008;BME280;15333;50.010;20.020;2023-04-26T03:28:32;98265.41;;;4.87;86.46
28008;BME280;15333;50.010;20.020;2023-04-26T03:31:34;98264.47;;;4.74;86.22
28008;BME280;15333;50.010;20.020;2023-04-26T03:34:34;98272.88;;;4.81;87.41
28008;BME280;15333;50.010;20.020;2023-04-26T03:37:36;98282.81;;;4.77;86.88
28008;BME280;15333;50.010;20.020;2023-04-26T03:40:40;98278.81;;;4.70;87.76
28008;BME280;15333;50.010;20.020;2023-04-26T03:43:41;98273.13;;;4.62;88.15
28008;BME280;15333;50.010;20.020;2023-04-26T03:46:42;98284.84;;;4.58;88.85
28008;BME280;15333;50.010;20.020;2023-04-26T03:49:43;98285.03;;;4.55;88.72
28008;BME280;15333;50.010;20.020;2023-04-26T03:52:45;98297.94;;;4.61;88.87
28008;BME280;15333;50.010;20.020;2023-04-26T03:55:46;98299.25;;;4.54;88.89
28008;BME280;15333;50.010;20.020;2023-04-26T03:58:47;98297.16;;;4.59;88.16
28008;BME280;15333;50.010;20.020;2023-04-26T04:01:48;98303.53;;;4.70;87.86
28008;BME280;15333;50.010;20.020;2023-04-26T04:04:49;98304.59;;;4.82;86.79
28008;BME280;15333;50.010;20.020;2023-04-26T04:07:50;98303.88;;;5.23;85.84
28008;BME280;15333;50.010;20.020;2023-04-26T04:10:52;98306.88;;;5.87;83.06
28008;BME280;15333;50.010;20.020;2023-04-26T04:13:53;98312.59;;;5.53;81.73
28008;BME280;15333;50.010;20.020;2023-04-26T04:16:54;98312.50;;;6.10;81.20
28008;BME280;15333;50.010;20.020;2023-04-26T04:19:55;98312.31;;;6.52;78.40
28008;BME280;15333;50.010;20.020;2023-04-26T04:22:56;98320.75;;;6.72;76.49
28008;BME280;15333;50.010;20.020;2023-04-26T04:26:02;98319.97;;;7.22;74.73
28008;BME280;15333;50.010;20.020;2023-04-26T04:29:03;98323.56;;;7.33;72.82
28008;BME280;15333;50.010;20.020;2023-04-26T04:32:09;98318.78;;;8.24;70.21
28008;BME280;15333;50.010;20.020;2023-04-26T04:35:11;98327.03;;;7.72;69.37
28008;BME280;15333;50.010;20.020;2023-04-26T04:38:13;98333.97;;;6.98;71.98
28008;BME280;15333;50.010;20.020;2023-04-26T04:41:14;98347.09;;;6.62;71.89
28008;BME280;15333;50.010;20.020;2023-04-26T04:44:16;98345.28;;;7.40;71.39
28008;BME280;15333;50.010;20.020;2023-04-26T04:47:17;98342.16;;;8.20;68.57
28008;BME280;15333;50.010;20.020;2023-04-26T04:50:19;98349.50;;;7.68;68.94
28008;BME280;15333;50.010;20.020;2023-04-26T04:53:21;98356.56;;;7.56;70.27
28008;BME280;15333;50.010;20.020;2023-04-26T04:56:22;98354.00;;;7.80;68.23
28008;BME280;15333;50.010;20.020;2023-04-26T04:59:23;98350.69;;;7.64;68.75
28008;BME280;15333;50.010;20.020;2023-04-26T05:02:24;98358.00;;;7.98;67.67
28008;BME280;15333;50.010;20.020;2023-04-26T05:05:26;98345.72;;;8.08;68.06
28008;BME280;15333;50.010;20.020;2023-04-26T05:08:27;98355.19;;;8.49;64.63
28008;BME280;15333;50.010;20.020;2023-04-26T05:11:31;98360.56;;;9.52;62.00
28008;BME280;15333;50.010;20.020;2023-04-26T05:14:33;98357.91;;;9.41;61.49
28008;BME280;15333;50.010;20.020;2023-04-26T05:17:34;98361.44;;;9.30;61.02
28008;BME280;15333;50.010;20.020;2023-04-26T05:20:44;98376.34;;;9.33;61.72
28008;BME280;15333;50.010;20.020;2023-04-26T05:23:45;98366.53;;;8.40;62.26
28008;BME280;15333;50.010;20.020;2023-04-26T05:26:46;98369.38;;;8.73;60.94
28008;BME280;15333;50.010;20.020;2023-04-26T05:29:53;98366.31;;;8.43;61.75
28008;BME280;15333;50.010;20.020;2023-04-26T05:33:20;98379.41;;;8.46;62.44
28008;BME280;15333;50.010;20.020;2023-04-26T05:36:42;98385.75;;;7.45;66.20
28008;BME280;15333;50.010;20.020;2023-04-26T05:39:43;98391.50;;;7.26;66.67
28008;BME280;15333;50.010;20.020;2023-04-26T05:42:44;98390.72;;;6.59;69.55
28008;BME280;15333;50.010;20.020;2023-04-26T05:45:55;98387.59;;;6.80;69.82
28008;BME280;15333;50.010;20.020;2023-04-26T05:48:56;98386.59;;;6.41;70.68
28008;BME280;15333;50.010;20.020;2023-04-26T05:51:58;98399.38;;;6.22;70.75
28008;BME280;15333;50.010;20.020;2023-04-26T05:55:00;98392.72;;;6.29;70.06
28008;BME280;15333;50.010;20.020;2023-04-26T05:58:04;98383.09;;;6.67;70.12
28008;BME280;15333;50.010;20.020;2023-04-26T06:01:05;98384.91;;;6.67;67.55
28008;BME280;15333;50.010;20.020;2023-04-26T06:04:08;98389.81;;;6.46;68.23
28008;BME280;15333;50.010;20.020;2023-04-26T06:07:21;98386.81;;;6.78;68.00
28008;BME280;15333;50.010;20.020;2023-04-26T06:10:23;98384.84;;;6.81;67.51
28008;BME280;15333;50.010;20.020;2023-04-26T06:13:24;98401.94;;;6.77;67.32
28008;BME280;15333;50.010;20.020;2023-04-26T06:16:25;98393.09;;;6.77;67.51
28008;BME280;15333;50.010;20.020;2023-04-26T06:19:26;98404.44;;;6.93;67.36
28008;BME280;15333;50.010;20.020;2023-04-26T06:22:27;98390.22;;;6.67;67.77
28008;BME280;15333;50.010;20.020;2023-04-26T06:25:28;98404.28;;;7.21;67.46
28008;BME280;15333;50.010;20.020;2023-04-26T06:28:31;98395.75;;;7.16;66.02
28008;BME280;15333;50.010;20.020;2023-04-26T06:31:32;98396.56;;;7.04;66.01
28008;BME280;15333;50.010;20.020;2023-04-26T06:34:33;98395.44;;;7.21;65.20
28008;BME280;15333;50.010;20.020;2023-04-26T06:37:36;98387.44;;;7.46;64.75
28008;BME280;15333;50.010;20.020;2023-04-26T06:40:37;98386.81;;;7.17;64.81
28008;BME280;15333;50.010;20.020;2023-04-26T06:43:38;98390.09;;;7.33;63.92
28008;BME280;15333;50.010;20.020;2023-04-26T06:46:41;98393.84;;;7.43;63.61
28008;BME280;15333;50.010;20.020;2023-04-26T06:49:42;98394.91;;;7.54;62.93
28008;BME280;15333;50.010;20.020;2023-04-26T06:52:43;98396.38;;;7.83;62.32
28008;BME280;15333;50.010;20.020;2023-04-26T06:55:44;98397.38;;;7.57;60.66
28008;BME280;15333;50.010;20.020;2023-04-26T06:59:05;98406.41;;;7.16;60.25
28008;BME280;15333;50.010;20.020;2023-04-26T07:02:06;98397.91;;;7.24;59.97
28008;BME280;15333;50.010;20.020;2023-04-26T07:05:07;98403.22;;;7.49;56.95
28008;BME280;15333;50.010;20.020;2023-04-26T07:08:08;98398.84;;;7.61;59.64
28008;BME280;15333;50.010;20.020;2023-04-26T07:11:11;98406.19;;;7.70;60.60
28008;BME280;15333;50.010;20.020;2023-04-26T07:14:12;98404.06;;;7.88;60.69
28008;BME280;15333;50.010;20.020;2023-04-26T07:17:13;98398.06;;;7.97;59.99
28008;BME280;15333;50.010;20.020;2023-04-26T07:20:14;98408.09;;;7.93;57.51
28008;BME280;15333;50.010;20.020;2023-04-26T07:23:19;98405.34;;;7.69;57.20
28008;BME280;15333;50.010;20.020;2023-04-26T07:26:21;98412.03;;;7.75;56.93
28008;BME280;15333;50.010;20.020;2023-04-26T07:29:22;98407.03;;;7.83;56.21
28008;BME280;15333;50.010;20.020;2023-04-26T07:32:23;98395.88;;;7.78;56.75
28008;BME280;15333;50.010;20.020;2023-04-26T07:35:24;98412.56;;;7.67;56.65
28008;BME280;15333;50.010;20.020;2023-04-26T07:38:24;98410.00;;;7.91;56.54
28008;BME280;15333;50.010;20.020;2023-04-26T07:41:26;98425.94;;;8.42;56.51
28008;BME280;15333;50.010;20.020;2023-04-26T07:44:26;98411.19;;;8.49;54.84
28008;BME280;15333;50.010;20.020;2023-04-26T07:47:28;98417.03;;;8.54;54.85
28008;BME280;15333;50.010;20.020;2023-04-26T07:50:29;98427.63;;;8.43;53.81
28008;BME280;15333;50.010;20.020;2023-04-26T07:53:30;98425.28;;;8.51;54.69
28008;BME280;15333;50.010;20.020;2023-04-26T07:56:31;98419.22;;;8.73;53.53
28008;BME280;15333;50.010;20.020;2023-04-26T07:59:32;98420.38;;;8.92;52.96
28008;BME280;15333;50.010;20.020;2023-04-26T08:02:32;98415.13;;;9.15;52.42
28008;BME280;15333;50.010;20.020;2023-04-26T08:05:33;98414.47;;;9.46;51.03
28008;BME280;15333;50.010;20.020;2023-04-26T08:08:34;98430.50;;;9.46;51.66
28008;BME280;15333;50.010;20.020;2023-04-26T08:11:42;98419.00;;;9.11;50.72
28008;BME280;15333;50.010;20.020;2023-04-26T08:14:43;98423.97;;;8.80;51.52
28008;BME280;15333;50.010;20.020;2023-04-26T08:17:44;98446.19;;;8.44;50.87
28008;BME280;15333;50.010;20.020;2023-04-26T08:20:45;98430.09;;;8.70;51.21
28008;BME280;15333;50.010;20.020;2023-04-26T08:23:46;98419.13;;;9.55;49.07
28008;BME280;15333;50.010;20.020;2023-04-26T08:26:46;98430.56;;;9.68;47.30
28008;BME280;15333;50.010;20.020;2023-04-26T08:29:48;98433.38;;;9.32;47.42
28008;BME280;15333;50.010;20.020;2023-04-26T08:32:48;98439.75;;;9.53;47.94
28008;BME280;15333;50.010;20.020;2023-04-26T08:35:49;98445.91;;;8.60;49.70
28008;BME280;15333;50.010;20.020;2023-04-26T08:38:51;98442.72;;;8.31;49.81
28008;BME280;15333;50.010;20.020;2023-04-26T08:41:53;98442.38;;;8.23;51.17
28008;BME280;15333;50.010;20.020;2023-04-26T08:44:59;98451.16;;;7.87;50.03
28008;BME280;15333;50.010;20.020;2023-04-26T08:48:04;98446.44;;;8.16;50.25
28008;BME280;15333;50.010;20.020;2023-04-26T08:51:07;98439.25;;;8.78;50.06
28008;BME280;15333;50.010;20.020;2023-04-26T08:54:10;98441.72;;;8.45;50.61
28008;BME280;15333;50.010;20.020;2023-04-26T08:57:11;98434.28;;;8.61;52.74
28008;BME280;15333;50.010;20.020;2023-04-26T09:00:14;98438.66;;;8.62;52.76
28008;BME280;15333;50.010;20.020;2023-04-26T09:03:15;98441.72;;;8.69;51.92
28008;BME280;15333;50.010;20.020;2023-04-26T09:06:17;98448.47;;;8.61;49.69
28008;BME280;15333;50.010;20.020;2023-04-26T09:09:19;98438.88;;;9.07;49.30
28008;BME280;15333;50.010;20.020;2023-04-26T09:12:21;98444.06;;;9.32;48.82
28008;BME280;15333;50.010;20.020;2023-04-26T09:15:24;98437.09;;;9.53;49.36
28008;BME280;15333;50.010;20.020;2023-04-26T09:18:26;98435.69;;;9.82;48.50
28008;BME280;15333;50.010;20.020;2023-04-26T09:21:27;98433.84;;;9.26;47.80
28008;BME280;15333;50.010;20.020;2023-04-26T09:24:48;98439.25;;;8.78;49.38
28008;BME280;15333;50.010;20.020;2023-04-26T09:27:50;98439.34;;;8.77;50.36
28008;BME280;15333;50.010;20.020;2023-04-26T09:30:51;98436.56;;;8.54;49.78
28008;BME280;15333;50.010;20.020;2023-04-26T09:34:01;98453.25;;;8.45;50.02
28008;BME280;15333;50.010;20.020;2023-04-26T09:37:01;98438.97;;;8.94;50.04
28008;BME280;15333;50.010;20.020;2023-04-26T09:40:10;98445.53;;;8.77;51.94
28008;BME280;15333;50.010;20.020;2023-04-26T09:43:19;98456.03;;;8.18;58.27
28008;BME280;15333;50.010;20.020;2023-04-26T09:46:21;98462.63;;;8.25;60.42
28008;BME280;15333;50.010;20.020;2023-04-26T09:49:30;98462.84;;;8.22;58.96
28008;BME280;15333;50.010;20.020;2023-04-26T09:52:41;98456.97;;;8.43;56.99
28008;BME280;15333;50.010;20.020;2023-04-26T09:55:42;98461.59;;;8.88;55.20
28008;BME280;15333;50.010;20.020;2023-04-26T10:01:47;98467.50;;;9.74;51.76
28008;BME280;15333;50.010;20.020;2023-04-26T10:04:53;98460.47;;;9.03;53.28
28008;BME280;15333;50.010;20.020;2023-04-26T10:07:54;98460.44;;;8.56;53.99
28008;BME280;15333;50.010;20.020;2023-04-26T10:10:55;98460.72;;;8.15;55.77
28008;BME280;15333;50.010;20.020;2023-04-26T10:13:56;98474.19;;;7.88;55.10
28008;BME280;15333;50.010;20.020;2023-04-26T10:16:57;98463.53;;;8.01;56.75
28008;BME280;15333;50.010;20.020;2023-04-26T10:19:59;98463.06;;;8.45;56.22
28008;BME280;15333;50.010;20.020;2023-04-26T10:23:04;98453.03;;;8.10;56.89
28008;BME280;15333;50.010;20.020;2023-04-26T10:39:19;98453.84;;;9.09;51.17
28008;BME280;15333;50.010;20.020;2023-04-26T10:42:25;98446.25;;;9.27;49.41
28008;BME280;15333;50.010;20.020;2023-04-26T10:45:28;98451.75;;;9.94;48.03
28008;BME280;15333;50.010;20.020;2023-04-26T10:48:30;98452.81;;;10.02;47.12
28008;BME280;15333;50.010;20.020;2023-04-26T10:51:31;98458.53;;;9.98;47.04
28008;BME280;15333;50.010;20.020;2023-04-26T10:54:46;98467.00;;;9.23;48.01
28008;BME280;15333;50.010;20.020;2023-04-26T10:57:49;98484.31;;;8.70;47.00
28008;BME280;15333;50.010;20.020;2023-04-26T11:01:06;98462.97;;;8.70;46.81
28008;BME280;15333;50.010;20.020;2023-04-26T11:04:09;98475.50;;;9.04;47.43
28008;BME280;15333;50.010;20.020;2023-04-26T11:07:12;98488.97;;;8.43;50.06
28008;BME280;15333;50.010;20.020;2023-04-26T11:10:21;98486.50;;;8.40;49.48
28008;BME280;15333;50.010;20.020;2023-04-26T11:13:22;98488.66;;;8.22;51.07
28008;BME280;15333;50.010;20.020;2023-04-26T11:16:27;98478.84;;;8.22;51.22
28008;BME280;15333;50.010;20.020;2023-04-26T11:19:28;98485.56;;;8.15;49.97
28008;BME280;15333;50.010;20.020;2023-04-26T11:22:29;98482.44;;;8.47;51.08
28008;BME280;15333;50.010;20.020;2023-04-26T11:25:30;98482.38;;;8.72;49.30
28008;BME280;15333;50.010;20.020;2023-04-26T11:28:33;98497.59;;;8.59;48.77
28008;BME280;15333;50.010;20.020;2023-04-26T11:31:34;98476.34;;;8.81;48.55
28008;BME280;15333;50.010;20.020;2023-04-26T11:34:37;98469.06;;;9.31;48.31
28008;BME280;15333;50.010;20.020;2023-04-26T11:37:38;98474.41;;;9.31;46.67
28008;BME280;15333;50.010;20.020;2023-04-26T11:40:39;98485.88;;;9.44;46.51
28008;BME280;15333;50.010;20.020;2023-04-26T11:43:41;98498.22;;;9.10;45.35
28008;BME280;15333;50.010;20.020;2023-04-26T11:46:42;98513.38;;;8.49;47.28
28008;BME280;15333;50.010;20.020;2023-04-26T11:49:43;98499.25;;;8.60;46.96
28008;BME280;15333;50.010;20.020;2023-04-26T11:52:46;98496.22;;;8.77;45.49
28008;BME280;15333;50.010;20.020;2023-04-26T11:55:46;98501.13;;;9.07;47.23
28008;BME280;15333;50.010;20.020;2023-04-26T11:58:50;98501.47;;;9.02;46.03
28008;BME280;15333;50.010;20.020;2023-04-26T12:01:51;98493.53;;;9.14;46.76
28008;BME280;15333;50.010;20.020;2023-04-26T12:04:57;98496.38;;;9.58;45.98
28008;BME280;15333;50.010;20.020;2023-04-26T12:07:59;98493.19;;;9.99;45.96
28008;BME280;15333;50.010;20.020;2023-04-26T12:11:01;98490.06;;;10.50;44.63
28008;BME280;15333;50.010;20.020;2023-04-26T12:14:02;98492.97;;;10.47;45.66
28008;BME280;15333;50.010;20.020;2023-04-26T12:17:04;98507.09;;;9.69;45.41
28008;BME280;15333;50.010;20.020;2023-04-26T12:20:10;98505.34;;;8.98;45.80
28008;BME280;15333;50.010;20.020;2023-04-26T12:23:15;98497.91;;;9.85;46.23
28008;BME280;15333;50.010;20.020;2023-04-26T12:26:16;98493.50;;;9.83;46.52
28008;BME280;15333;50.010;20.020;2023-04-26T12:29:17;98494.56;;;9.70;45.24
28008;BME280;15333;50.010;20.020;2023-04-26T12:32:18;98479.56;;;9.91;45.65
28008;BME280;15333;50.010;20.020;2023-04-26T12:35:19;98487.41;;;9.70;45.10
28008;BME280;15333;50.010;20.020;2023-04-26T12:38:20;98474.06;;;9.81;45.37
28008;BME280;15333;50.010;20.020;2023-04-26T12:41:21;98486.19;;;9.63;46.68
28008;BME280;15333;50.010;20.020;2023-04-26T12:44:22;98498.97;;;9.12;46.81
28008;BME280;15333;50.010;20.020;2023-04-26T12:47:23;98505.34;;;8.98;48.24
28008;BME280;15333;50.010;20.020;2023-04-26T12:50:24;98517.09;;;8.59;47.87
28008;BME280;15333;50.010;20.020;2023-04-26T12:53:25;98538.19;;;8.75;47.22
28008;BME280;15333;50.010;20.020;2023-04-26T12:56:28;98508.91;;;9.10;45.26
28008;BME280;15333;50.010;20.020;2023-04-26T12:59:29;98517.22;;;9.53;44.07
28008;BME280;15333;50.010;20.020;2023-04-26T13:02:30;98502.59;;;9.35;42.48
28008;BME280;15333;50.010;20.020;2023-04-26T13:05:31;98511.75;;;9.20;43.08
28008;BME280;15333;50.010;20.020;2023-04-26T13:08:32;98506.66;;;10.09;44.05
28008;BME280;15333;50.010;20.020;2023-04-26T13:11:33;98505.03;;;10.19;44.00
28008;BME280;15333;50.010;20.020;2023-04-26T13:14:34;98511.47;;;9.81;43.66
28008;BME280;15333;50.010;20.020;2023-04-26T13:17:36;98519.31;;;9.26;44.67
28008;BME280;15333;50.010;20.020;2023-04-26T13:20:37;98523.41;;;9.19;45.57
28008;BME280;15333;50.010;20.020;2023-04-26T13:23:38;98533.84;;;8.98;47.06
28008;BME280;15333;50.010;20.020;2023-04-26T13:26:39;98534.81;;;8.48;48.90
28008;BME280;15333;50.010;20.020;2023-04-26T13:29:40;98555.63;;;8.43;49.15
28008;BME280;15333;50.010;20.020;2023-04-26T13:32:41;98545.34;;;8.62;47.52
28008;BME280;15333;50.010;20.020;2023-04-26T13:35:42;98537.63;;;8.83;46.67
28008;BME280;15333;50.010;20.020;2023-04-26T13:38:43;98533.63;;;9.25;44.82
28008;BME280;15333;50.010;20.020;2023-04-26T13:41:44;98528.06;;;9.28;43.04
28008;BME280;15333;50.010;20.020;2023-04-26T13:44:45;98533.81;;;9.69;43.56
28008;BME280;15333;50.010;20.020;2023-04-26T13:47:46;98543.16;;;9.40;43.55
28008;BME280;15333;50.010;20.020;2023-04-26T13:50:47;98546.41;;;9.67;44.95
28008;BME280;15333;50.010;20.020;2023-04-26T13:53:48;98584.06;;;9.17;46.82
28008;BME280;15333;50.010;20.020;2023-04-26T13:56:49;98574.81;;;8.22;49.98
28008;BME280;15333;50.010;20.020;2023-04-26T13:59:50;98548.09;;;8.86;50.16
28008;BME280;15333;50.010;20.020;2023-04-26T14:02:51;98542.25;;;9.04;49.29
28008;BME280;15333;50.010;20.020;2023-04-26T14:05:53;98540.31;;;9.07;49.28
28008;BME280;15333;50.010;20.020;2023-04-26T14:08:53;98536.31;;;9.60;48.51
28008;BME280;15333;50.010;20.020;2023-04-26T14:11:54;98531.63;;;9.74;46.24
28008;BME280;15333;50.010;20.020;2023-04-26T14:14:55;98538.75;;;9.98;44.83
28008;BME280;15333;50.010;20.020;2023-04-26T14:17:56;98529.81;;;10.21;43.43
28008;BME280;15333;50.010;20.020;2023-04-26T14:20:57;98546.06;;;9.37;42.76
28008;BME280;15333;50.010;20.020;2023-04-26T14:23:58;98553.06;;;9.27;44.13
28008;BME280;15333;50.010;20.020;2023-04-26T14:27:00;98564.00;;;8.87;46.31
28008;BME280;15333;50.010;20.020;2023-04-26T14:30:01;98555.81;;;8.65;46.49
28008;BME280;15333;50.010;20.020;2023-04-26T14:33:02;98568.19;;;8.53;47.26
28008;BME280;15333;50.010;20.020;2023-04-26T14:36:03;98571.56;;;8.93;46.97
28008;BME280;15333;50.010;20.020;2023-04-26T14:39:04;98564.13;;;9.33;46.03
28008;BME280;15333;50.010;20.020;2023-04-26T14:42:06;98555.78;;;10.08;45.36
28008;BME280;15333;50.010;20.020;2023-04-26T14:45:07;98553.19;;;10.41;43.48
28008;BME280;15333;50.010;20.020;2023-04-26T14:48:09;98552.56;;;10.38;41.73
28008;BME280;15333;50.010;20.020;2023-04-26T14:51:10;98553.38;;;9.81;41.60
28008;BME280;15333;50.010;20.020;2023-04-26T14:54:14;98555.41;;;9.66;42.33
28008;BME280;15333;50.010;20.020;2023-04-26T14:57:15;98562.06;;;9.96;42.62
28008;BME280;15333;50.010;20.020;2023-04-26T15:00:17;98559.25;;;10.32;40.93
28008;BME280;15333;50.010;20.020;2023-04-26T15:03:18;98570.59;;;10.01;41.35
28008;BME280;15333;50.010;20.020;2023-04-26T15:06:19;98568.03;;;10.10;41.46
28008;BME280;15333;50.010;20.020;2023-04-26T15:09:20;98570.16;;;9.72;42.17
28008;BME280;15333;50.010;20.020;2023-04-26T15:12:22;98578.75;;;9.75;42.32
28008;BME280;15333;50.010;20.020;2023-04-26T15:15:22;98578.94;;;9.61;42.71
28008;BME280;15333;50.010;20.020;2023-04-26T15:18:24;98580.81;;;9.24;43.40
28008;BME280;15333;50.010;20.020;2023-04-26T15:21:24;98577.59;;;9.32;42.80
28008;BME280;15333;50.010;20.020;2023-04-26T15:24:27;98569.19;;;9.49;42.66
28008;BME280;15333;50.010;20.020;2023-04-26T15:27:27;98576.72;;;9.79;42.62
28008;BME280;15333;50.010;20.020;2023-04-26T15:30:29;98576.81;;;10.01;41.64
28008;BME280;15333;50.010;20.020;2023-04-26T15:33:30;98567.97;;;9.77;41.08
28008;BME280;15333;50.010;20.020;2023-04-26T15:36:31;98574.84;;;9.68;41.22
28008;BME280;15333;50.010;20.020;2023-04-26T15:39:32;98577.66;;;9.19;41.46
28008;BME280;15333;50.010;20.020;2023-04-26T15:42:33;98578.81;;;9.28;42.12
28008;BME280;15333;50.010;20.020;2023-04-26T15:45:34;98587.38;;;9.44;43.09
28008;BME280;15333;50.010;20.020;2023-04-26T15:48:35;98587.72;;;9.16;42.77
28008;BME280;15333;50.010;20.020;2023-04-26T15:59:45;98629.94;;;8.22;45.62
28008;BME280;15333;50.010;20.020;2023-04-26T16:02:47;98611.91;;;8.00;46.69
28008;BME280;15333;50.010;20.020;2023-04-26T16:05:47;98624.03;;;8.04;47.14
28008;BME280;15333;50.010;20.020;2023-04-26T16:08:49;98624.19;;;8.28;46.91
28008;BME280;15333;50.010;20.020;2023-04-26T16:11:49;98625.56;;;8.08;47.05
28008;BME280;15333;50.010;20.020;2023-04-26T16:14:51;98632.19;;;8.15;47.53
28008;BME280;15333;50.010;20.020;2023-04-26T16:17:51;98622.56;;;8.25;48.04
28008;BME280;15333;50.010;20.020;2023-04-26T16:21:02;98618.44;;;8.21;48.74
28008;BME280;15333;50.010;20.020;2023-04-26T16:24:03;98618.72;;;8.04;48.86
28008;BME280;15333;50.010;20.020;2023-04-26T16:27:04;98621.50;;;8.15;48.55
28008;BME280;15333;50.010;20.020;2023-04-26T16:30:05;98622.22;;;8.05;49.40